Time;durP1;ratioP1;P1;durP2;ratioP2;P2;SDS_P1;SDS_P2;PMS_P1;PMS_P2;Temp;Humidity;BMP_temperature;BMP_pressure;BME280_temperature;BME280_humidity;BME280_pressure;Samples;Min_cycle;Max_cycle;Signal;HPM_P1;HPM_P2
2022/06/27 00:01:18;;;;;;;12.95;8.40;;;;;;;-141.50;100.00;63355.56;5072457;28;20056;-84
2022/06/27 00:03:45;;;;;;;9.32;7.80;;;;;;;-141.50;100.00;63355.56;5073207;28;20713;-84
2022/06/27 00:06:11;;;;;;;8.85;7.78;;;;;;;-141.50;100.00;63355.56;5053375;28;20048;-82
2022/06/27 00:08:38;;;;;;;8.93;7.40;;;;;;;-141.50;100.00;63355.56;5071049;28;20102;-83
2022/06/27 00:11:05;;;;;;;9.43;7.53;;;;;;;-141.50;100.00;63355.56;5072957;28;20080;-84
2022/06/27 00:13:31;;;;;;;11.10;7.97;;;;;;;-141.50;100.00;63355.56;5073371;28;20106;-84
2022/06/27 00:15:58;;;;;;;10.65;7.70;;;;;;;-141.50;100.00;63355.56;5072744;28;20060;-84
2022/06/27 00:18:32;;;;;;;13.20;9.05;;;;;;;-141.50;100.00;63355.56;5073992;28;20127;-83
2022/06/27 00:20:58;;;;;;;10.02;8.38;;;;;;;-141.50;100.00;63355.56;5065952;28;20145;-85
2022/06/27 00:23:25;;;;;;;9.23;8.25;;;;;;;-141.50;100.00;63355.56;5053063;28;20064;-85
2022/06/27 00:25:52;;;;;;;9.95;8.80;;;;;;;-141.50;100.00;63355.56;5054335;28;20057;-84
2022/06/27 00:28:18;;;;;;;10.40;8.93;;;;;;;-141.50;100.00;63355.56;5063187;28;20080;-82
2022/06/27 00:30:45;;;;;;;12.15;8.80;;;;;;;-141.50;100.00;63355.56;5053702;28;20071;-83
2022/06/27 00:33:11;;;;;;;10.10;9.05;;;;;;;-141.50;100.00;63355.56;5054410;28;20052;-85
2022/06/27 00:35:38;;;;;;;11.88;9.30;;;;;;;-141.50;100.00;63355.56;5072123;28;20060;-83
2022/06/27 00:38:05;;;;;;;10.50;9.40;;;;;;;-141.50;100.00;63355.56;5062524;28;20052;-83
2022/06/27 00:40:31;;;;;;;12.93;9.80;;;;;;;-141.50;100.00;63355.56;5056321;28;20077;-85
2022/06/27 00:42:58;;;;;;;15.07;10.07;;;;;;;-141.50;100.00;63355.56;5055881;28;20056;-85
2022/06/27 00:45:25;;;;;;;11.82;9.90;;;;;;;-141.50;100.00;63355.56;5055960;28;20064;-84
2022/06/27 00:47:51;;;;;;;10.75;9.65;;;;;;;-141.50;100.00;63355.56;5056262;28;20057;-84
2022/06/27 00:50:18;;;;;;;13.10;8.85;;;;;;;-141.50;100.00;63355.56;5052346;28;20134;-83
2022/06/27 00:52:45;;;;;;;12.82;10.98;;;;;;;-141.50;100.00;63355.56;5050545;28;20140;-84
2022/06/27 00:55:11;;;;;;;13.93;10.05;;;;;;;-141.50;100.00;63355.56;5054026;28;20045;-83
2022/06/27 00:57:38;;;;;;;12.27;9.73;;;;;;;-141.50;100.00;63355.56;5051963;28;20482;-84
2022/06/27 01:00:07;;;;;;;10.15;8.95;;;;;;;-141.50;100.00;63355.56;5052093;28;20529;-82
2022/06/27 01:02:34;;;;;;;12.35;8.95;;;;;;;-141.50;100.00;63355.56;5052383;28;20503;-82
2022/06/27 01:05:02;;;;;;;9.48;8.50;;;;;;;-141.50;100.00;63355.56;5053587;28;20048;-85
2022/06/27 01:07:28;;;;;;;11.85;9.50;;;;;;;-141.50;100.00;63355.56;5054648;28;20479;-84
2022/06/27 01:09:57;;;;;;;13.70;8.20;;;;;;;-141.50;100.00;63355.56;5053090;28;20152;-84
2022/06/27 01:12:24;;;;;;;10.95;8.10;;;;;;;-141.50;100.00;63355.56;5053265;28;20060;-84
2022/06/27 01:14:51;;;;;;;11.30;7.60;;;;;;;-141.50;100.00;63355.56;5054988;28;20678;-82
2022/06/27 01:17:18;;;;;;;8.25;7.35;;;;;;;-141.50;100.00;63355.56;5056070;28;20084;-84
2022/06/27 01:19:45;;;;;;;9.60;7.28;;;;;;;-141.50;100.00;63355.56;5054742;28;20131;-84
2022/06/27 01:22:12;;;;;;;9.93;7.13;;;;;;;-141.50;100.00;63355.56;5073891;28;20079;-85
2022/06/27 01:24:39;;;;;;;8.98;7.53;;;;;;;-141.50;100.00;63355.56;5073352;28;20424;-86
2022/06/27 01:27:07;;;;;;;10.75;7.20;;;;;;;-141.50;100.00;63355.56;5057482;28;20083;-85
2022/06/27 01:29:34;;;;;;;11.63;7.43;;;;;;;-141.50;100.00;63355.56;5078568;28;20057;-84
2022/06/27 01:32:02;;;;;;;15.57;7.30;;;;;;;-141.50;100.00;63355.56;5074353;28;20037;-82
2022/06/27 01:34:28;;;;;;;9.82;7.43;;;;;;;-141.50;100.00;63355.56;5069907;28;20110;-83
2022/06/27 01:36:55;;;;;;;12.80;7.35;;;;;;;-141.50;100.00;63355.56;5078076;28;20078;-83
2022/06/27 01:39:24;;;;;;;7.95;7.15;;;;;;;-141.50;100.00;63355.56;5072813;28;20611;-84
2022/06/27 01:41:52;;;;;;;8.30;7.32;;;;;;;-141.50;100.00;63355.56;5070332;28;20087;-84
2022/06/27 01:44:20;;;;;;;10.15;8.55;;;;;;;-141.50;100.00;63355.56;5053039;28;20080;-85
2022/06/27 01:46:52;;;;;;;9.60;8.60;;;;;;;-141.50;100.00;63355.56;5070292;28;20481;-85
2022/06/27 01:49:19;;;;;;;13.10;9.35;;;;;;;-141.50;100.00;63355.56;5075657;28;20066;-86
2022/06/27 01:51:49;;;;;;;11.20;9.40;;;;;;;-141.50;100.00;63355.56;5059750;28;20105;-85
2022/06/27 01:54:18;;;;;;;9.82;8.73;;;;;;;-141.50;100.00;63355.56;5083150;28;20052;-83
2022/06/27 01:56:54;;;;;;;10.13;8.25;;;;;;;-141.50;100.00;63355.56;5072056;28;20143;-84
2022/06/27 01:59:24;;;;;;;9.35;8.07;;;;;;;-141.50;100.00;63355.56;5073010;28;20032;-85
2022/06/27 02:01:51;;;;;;;15.63;7.90;;;;;;;-141.50;100.00;63355.56;5071069;28;20099;-85
2022/06/27 02:04:17;;;;;;;13.88;8.02;;;;;;;-141.50;100.00;63355.56;5073013;28;20048;-85
2022/06/27 02:06:45;;;;;;;13.20;8.60;;;;;;;-141.50;100.00;63355.56;5073532;28;20452;-85
2022/06/27 02:09:14;;;;;;;12.02;8.18;;;;;;;-141.50;100.00;63355.56;5074199;28;20053;-84
2022/06/27 02:11:45;;;;;;;12.50;8.23;;;;;;;-141.50;100.00;63355.56;5088427;28;20037;-82
2022/06/27 02:14:13;;;;;;;14.98;8.65;;;;;;;-141.50;100.00;63355.56;5093435;28;20048;-82
2022/06/27 02:16:42;;;;;;;14.38;7.70;;;;;;;-141.50;100.00;63355.56;5091467;28;20037;-83
2022/06/27 02:19:14;;;;;;;12.98;8.30;;;;;;;-141.50;100.00;63355.56;5081623;28;20040;-87
2022/06/27 02:21:42;;;;;;;10.90;9.02;;;;;;;-141.50;100.00;63355.56;5069487;28;20044;-84
2022/06/27 02:24:10;;;;;;;12.77;8.18;;;;;;;-141.50;100.00;63355.56;5090152;28;20036;-83
2022/06/27 02:26:37;;;;;;;10.25;8.40;;;;;;;-141.50;100.00;63355.56;5072620;28;20053;-83
2022/06/27 02:29:04;;;;;;;10.98;8.52;;;;;;;-141.50;100.00;63355.56;5073103;28;20057;-83
2022/06/27 02:31:31;;;;;;;11.45;8.50;;;;;;;-141.50;100.00;63355.56;5084367;28;20397;-82
2022/06/27 02:33:58;;;;;;;12.02;8.60;;;;;;;-141.50;100.00;63355.56;5052669;28;20040;-85
2022/06/27 02:36:32;;;;;;;10.57;8.90;;;;;;;-141.50;100.00;63355.56;5073996;28;20076;-84
2022/06/27 02:39:00;;;;;;;9.57;8.57;;;;;;;-141.50;100.00;63355.56;5076576;28;20049;-86
2022/06/27 02:41:31;;;;;;;10.23;8.65;;;;;;;-141.50;100.00;63355.56;5057899;28;20492;-85
2022/06/27 02:44:08;;;;;;;9.57;8.23;;;;;;;-141.50;100.00;63355.56;5054879;28;20137;-87
2022/06/27 02:46:35;;;;;;;10.93;8.57;;;;;;;-141.50;100.00;63355.56;5073415;28;20501;-87
2022/06/27 02:49:02;;;;;;;11.40;9.25;;;;;;;-141.50;100.00;63355.56;5055506;28;20066;-86
2022/06/27 02:51:35;;;;;;;14.68;9.80;;;;;;;-141.50;100.00;63355.56;5054816;28;20083;-86
2022/06/27 02:54:20;;;;;;;10.93;8.85;;;;;;;-141.50;100.00;63355.56;5062296;28;20049;-84
2022/06/27 02:56:52;;;;;;;10.68;9.20;;;;;;;-141.50;100.00;63355.56;5068715;28;20060;-84
2022/06/27 02:59:26;;;;;;;15.10;10.02;;;;;;;-141.50;100.00;63355.56;5071870;28;20056;-83
2022/06/27 03:01:56;;;;;;;11.88;8.68;;;;;;;-141.50;100.00;63355.56;5063727;28;20114;-85
2022/06/27 03:04:23;;;;;;;11.45;8.30;;;;;;;-141.50;100.00;63355.56;5078069;28;20079;-86
2022/06/27 03:06:49;;;;;;;11.27;8.23;;;;;;;-141.50;100.00;63355.56;5077660;28;20122;-86
2022/06/27 03:09:17;;;;;;;9.95;8.30;;;;;;;-141.50;100.00;63355.56;5077726;28;20056;-84
2022/06/27 03:11:48;;;;;;;17.02;8.10;;;;;;;-141.50;100.00;63355.56;5060367;28;20125;-85
2022/06/27 03:14:14;;;;;;;13.15;7.95;;;;;;;-141.50;100.00;63355.56;5079710;28;20079;-84
2022/06/27 03:16:41;;;;;;;17.25;8.32;;;;;;;-141.50;100.00;63355.56;5079653;28;20049;-84
2022/06/27 03:19:08;;;;;;;11.65;7.93;;;;;;;-141.50;100.00;63355.56;5073460;28;20044;-84
2022/06/27 03:21:35;;;;;;;15.52;7.90;;;;;;;-141.50;100.00;63355.56;5089140;28;20049;-84
2022/06/27 03:24:02;;;;;;;16.02;8.02;;;;;;;-141.50;100.00;63355.56;5084349;28;20052;-84
2022/06/27 03:26:28;;;;;;;15.05;7.70;;;;;;;-141.50;100.00;63355.56;5078466;28;20125;-86
2022/06/27 03:28:55;;;;;;;25.95;8.02;;;;;;;-141.50;100.00;63355.56;5076675;28;20673;-84
2022/06/27 03:31:21;;;;;;;13.60;8.43;;;;;;;-141.50;100.00;63355.56;5077123;28;20628;-85
2022/06/27 03:33:51;;;;;;;15.35;8.52;;;;;;;-141.50;100.00;63355.56;5076744;28;20518;-86
2022/06/27 03:36:17;;;;;;;11.63;8.23;;;;;;;-141.50;100.00;63355.56;5063324;28;20063;-84
2022/06/27 03:38:44;;;;;;;24.35;8.15;;;;;;;-141.50;100.00;63355.56;5094217;28;20075;-83
2022/06/27 03:41:10;;;;;;;11.07;8.48;;;;;;;-141.50;100.00;63355.56;5090500;28;20056;-84
2022/06/27 03:43:39;;;;;;;14.05;8.68;;;;;;;-141.50;100.00;63355.56;5068155;28;20068;-85
2022/06/27 03:46:06;;;;;;;14.63;9.10;;;;;;;-141.50;100.00;63355.56;5059772;28;20119;-83
2022/06/27 03:51:18;;;;;;;17.40;8.43;;;;;;;-141.50;100.00;63355.56;5058839;28;20045;-84
2022/06/27 03:53:44;;;;;;;17.13;8.82;;;;;;;-141.50;100.00;63355.56;5042752;28;20072;-85
2022/06/27 03:56:11;;;;;;;12.82;8.27;;;;;;;-141.50;100.00;63355.56;5068920;28;20049;-86
2022/06/27 03:58:37;;;;;;;17.90;8.85;;;;;;;-141.50;100.00;63355.56;5060309;28;20083;-84
2022/06/27 04:01:04;;;;;;;12.68;8.55;;;;;;;-141.50;100.00;63355.56;5054153;28;20444;-83
2022/06/27 04:03:31;;;;;;;17.50;8.63;;;;;;;-141.50;100.00;63355.56;5075968;28;20052;-80
2022/06/27 04:05:57;;;;;;;19.27;8.30;;;;;;;-141.50;100.00;63355.56;5058820;28;20073;-78
2022/06/27 04:08:24;;;;;;;12.55;8.82;;;;;;;-141.50;100.00;63355.56;5054309;28;20131;-78
2022/06/27 04:10:51;;;;;;;15.02;8.82;;;;;;;-141.50;100.00;63355.56;5054207;28;20126;-75
2022/06/27 04:13:17;;;;;;;13.20;8.45;;;;;;;-141.50;100.00;63355.56;5061652;28;20040;-73
2022/06/27 04:15:44;;;;;;;13.90;7.43;;;;;;;-141.50;100.00;63355.56;5041184;28;20057;-78
2022/06/27 04:18:13;;;;;;;14.93;8.32;;;;;;;-141.50;100.00;63355.56;5067665;28;20044;-76
2022/06/27 04:20:42;;;;;;;11.88;8.13;;;;;;;-141.50;100.00;63355.56;5077566;28;20060;-77
2022/06/27 04:23:08;;;;;;;13.80;8.18;;;;;;;-141.50;100.00;63355.56;5073075;28;20512;-77
2022/06/27 04:25:35;;;;;;;13.65;8.30;;;;;;;-141.50;100.00;63355.56;5054441;28;20106;-76
2022/06/27 04:28:05;;;;;;;17.73;9.07;;;;;;;-141.50;100.00;63355.56;5077687;28;20080;-81
2022/06/27 04:30:32;;;;;;;11.20;8.43;;;;;;;-141.50;100.00;63355.56;5075921;28;20437;-81
2022/06/27 04:32:59;;;;;;;11.40;8.60;;;;;;;-141.50;100.00;63355.56;5071943;28;20101;-81
2022/06/27 04:35:26;;;;;;;17.38;9.07;;;;;;;-141.50;100.00;63355.56;5076271;28;20064;-82
2022/06/27 04:37:53;;;;;;;14.07;8.70;;;;;;;-141.50;100.00;63355.56;5076065;28;20064;-81
2022/06/27 04:40:20;;;;;;;12.43;9.20;;;;;;;-141.50;100.00;63355.56;5073270;28;20215;-81
2022/06/27 04:42:50;;;;;;;15.00;9.32;;;;;;;-141.50;100.00;63355.56;5071997;28;20053;-81
2022/06/27 04:45:18;;;;;;;17.38;9.75;;;;;;;-141.50;100.00;63355.56;5055479;28;20094;-81
2022/06/27 04:47:45;;;;;;;14.65;9.07;;;;;;;-141.50;100.00;63355.56;5073391;28;20052;-83
2022/06/27 04:50:17;;;;;;;14.77;8.70;;;;;;;-141.50;100.00;63355.56;5072322;28;20142;-82
2022/06/27 04:52:44;;;;;;;12.52;8.45;;;;;;;-141.50;100.00;63355.56;5060870;28;20140;-83
2022/06/27 04:55:12;;;;;;;13.43;9.35;;;;;;;-141.50;100.00;63355.56;5060936;28;20131;-83
2022/06/27 04:57:45;;;;;;;14.75;8.38;;;;;;;-141.50;100.00;63355.56;5042123;28;20052;-82
2022/06/27 05:00:14;;;;;;;10.73;8.27;;;;;;;-141.50;100.00;63355.56;5058605;28;20052;-81
2022/06/27 05:02:47;;;;;;;13.80;7.30;;;;;;;-141.50;100.00;63355.56;5060468;28;20131;-82
2022/06/27 05:05:14;;;;;;;12.63;7.03;;;;;;;-141.50;100.00;63355.56;5062372;28;20098;-81
2022/06/27 05:07:43;;;;;;;9.88;6.97;;;;;;;-141.50;100.00;63355.56;5060692;28;20558;-83
2022/06/27 05:10:10;;;;;;;9.57;7.13;;;;;;;-141.50;100.00;63355.56;5068341;28;20108;-79
2022/06/27 05:12:36;;;;;;;9.68;6.90;;;;;;;-141.50;100.00;63355.56;5058727;28;20052;-85
2022/06/27 05:15:04;;;;;;;14.88;6.90;;;;;;;-141.50;100.00;63355.56;5037969;28;20083;-83
2022/06/27 05:17:30;;;;;;;11.15;6.13;;;;;;;-141.50;100.00;63355.56;5053286;28;20048;-84
2022/06/27 05:19:57;;;;;;;9.48;5.72;;;;;;;-141.50;100.00;63355.56;5054358;28;20083;-84
2022/06/27 05:22:23;;;;;;;10.25;5.90;;;;;;;-141.50;100.00;63355.56;5061054;28;20143;-82
2022/06/27 05:24:50;;;;;;;10.60;6.10;;;;;;;-141.50;100.00;63355.56;5053504;28;20104;-84
2022/06/27 05:27:19;;;;;;;11.15;6.82;;;;;;;-141.50;100.00;63355.56;5068892;28;20052;-82
2022/06/27 05:29:46;;;;;;;9.73;7.38;;;;;;;-141.50;100.00;63355.56;5049940;28;20115;-82
2022/06/27 05:32:13;;;;;;;6.95;5.32;;;;;;;-141.50;100.00;63355.56;5068104;28;20090;-83
2022/06/27 05:34:40;;;;;;;7.93;5.18;;;;;;;-141.50;100.00;63355.56;5067563;28;20501;-83
2022/06/27 05:37:08;;;;;;;6.63;5.38;;;;;;;-141.50;100.00;63355.56;5068255;28;20052;-83
2022/06/27 05:39:35;;;;;;;8.18;5.32;;;;;;;-141.50;100.00;63355.56;5066968;28;20052;-82
2022/06/27 05:42:03;;;;;;;13.48;7.63;;;;;;;-141.50;100.00;63355.56;5067498;28;20422;-83
2022/06/27 05:44:30;;;;;;;10.27;7.18;;;;;;;-141.50;100.00;63355.56;5065626;28;20048;-83
2022/06/27 05:46:57;;;;;;;8.82;4.97;;;;;;;-141.50;100.00;63355.56;5067024;28;20138;-82
2022/06/27 05:49:24;;;;;;;8.15;4.63;;;;;;;-141.50;100.00;63355.56;5066730;28;20056;-83
2022/06/27 05:51:56;;;;;;;5.82;4.50;;;;;;;-141.50;100.00;63355.56;5049860;28;20056;-81
2022/06/27 05:54:23;;;;;;;8.73;5.10;;;;;;;-141.50;100.00;63355.56;5064992;28;20048;-80
2022/06/27 05:56:50;;;;;;;12.13;4.80;;;;;;;-141.50;100.00;63355.56;5079732;28;20082;-80
2022/06/27 05:59:17;;;;;;;9.57;4.45;;;;;;;-141.50;100.00;63355.56;5073972;28;20049;-82
2022/06/27 06:01:46;;;;;;;6.38;4.60;;;;;;;-141.50;100.00;63355.56;5061158;28;20144;-83
2022/06/27 06:04:14;;;;;;;7.75;4.20;;;;;;;-141.50;100.00;63355.56;5081906;28;20064;-83
2022/06/27 06:06:41;;;;;;;6.03;4.30;;;;;;;-141.50;100.00;63355.56;5060671;28;20048;-84
2022/06/27 06:09:08;;;;;;;9.25;4.90;;;;;;;-141.50;100.00;63355.56;5057736;28;20063;-81
2022/06/27 06:11:40;;;;;;;6.15;4.28;;;;;;;-141.50;100.00;63355.56;5091312;28;20575;-82
2022/06/27 06:14:08;;;;;;;10.77;5.15;;;;;;;-141.50;100.00;63355.56;5092331;28;20066;-84
2022/06/27 06:16:37;;;;;;;9.00;4.22;;;;;;;-141.50;100.00;63355.56;5074841;28;20082;-83
2022/06/27 06:19:04;;;;;;;6.47;4.43;;;;;;;-141.50;100.00;63355.56;5084286;28;20048;-83
2022/06/27 06:21:32;;;;;;;6.57;4.13;;;;;;;-141.50;100.00;63355.56;5070106;28;20084;-82
2022/06/27 06:23:59;;;;;;;8.38;4.03;;;;;;;-141.50;100.00;63355.56;5052153;28;20079;-81
2022/06/27 06:26:25;;;;;;;6.20;3.83;;;;;;;-141.50;100.00;63355.56;5070377;28;20044;-83
2022/06/27 06:28:53;;;;;;;10.15;3.72;;;;;;;-141.50;100.00;63355.56;5061800;28;20075;-80
2022/06/27 06:31:23;;;;;;;5.75;3.67;;;;;;;-141.50;100.00;63355.56;5098747;28;20055;-82
2022/06/27 06:33:51;;;;;;;4.80;3.22;;;;;;;-141.50;100.00;63355.56;5073169;28;20106;-81
2022/06/27 06:36:21;;;;;;;6.68;3.45;;;;;;;-141.50;100.00;63355.56;5079561;28;20112;-83
2022/06/27 06:38:49;;;;;;;5.70;3.50;;;;;;;-141.50;100.00;63355.56;5069612;28;20074;-82
2022/06/27 06:41:15;;;;;;;4.78;3.40;;;;;;;-141.50;100.00;63355.56;5085421;28;20078;-80
2022/06/27 06:43:43;;;;;;;8.55;3.42;;;;;;;-141.50;100.00;63355.56;5082519;28;20140;-82
2022/06/27 06:46:10;;;;;;;16.05;4.18;;;;;;;-141.50;100.00;63355.56;5082471;28;20080;-84
2022/06/27 06:48:38;;;;;;;7.13;3.30;;;;;;;-141.50;100.00;63355.56;5075764;28;20044;-84
2022/06/27 06:51:12;;;;;;;9.27;3.35;;;;;;;-141.50;100.00;63355.56;5059256;28;20076;-84
2022/06/27 06:53:41;;;;;;;13.85;3.22;;;;;;;-141.50;100.00;63355.56;5076432;28;20044;-83
2022/06/27 06:56:08;;;;;;;6.70;3.03;;;;;;;-141.50;100.00;63355.56;5083958;28;20070;-83
2022/06/27 06:58:35;;;;;;;4.53;3.15;;;;;;;-141.50;100.00;63355.56;5083526;28;20052;-84
2022/06/27 07:01:02;;;;;;;4.93;3.10;;;;;;;-141.50;100.00;63355.56;5086141;28;20067;-83
2022/06/27 07:03:29;;;;;;;5.50;2.78;;;;;;;-141.50;100.00;63355.56;5101250;28;20051;-82
2022/06/27 07:05:56;;;;;;;4.60;2.90;;;;;;;-141.50;100.00;63355.56;5095046;28;20569;-83
2022/06/27 07:08:24;;;;;;;5.45;2.70;;;;;;;-141.50;100.00;63355.56;5093848;28;20048;-83
2022/06/27 07:10:51;;;;;;;5.47;2.67;;;;;;;-141.50;100.00;63355.56;5093762;28;20552;-83
2022/06/27 07:13:19;;;;;;;8.32;2.58;;;;;;;-141.50;100.00;63355.56;5094002;28;20178;-81
2022/06/27 07:15:46;;;;;;;4.68;2.70;;;;;;;-141.50;100.00;63355.56;5093256;28;20059;-81
2022/06/27 07:18:13;;;;;;;4.22;2.40;;;;;;;-141.50;100.00;63355.56;5089952;28;20474;-83
2022/06/27 07:20:41;;;;;;;5.10;2.75;;;;;;;-141.50;100.00;63355.56;5071215;28;20577;-81
2022/06/27 07:23:08;;;;;;;4.07;2.47;;;;;;;-141.50;100.00;63355.56;5071416;28;20056;-80
2022/06/27 07:25:35;;;;;;;5.60;2.53;;;;;;;-141.50;100.00;63355.56;5070855;28;20048;-84
2022/06/27 07:28:02;;;;;;;3.03;2.53;;;;;;;-141.50;100.00;63355.56;5068836;28;20101;-82
2022/06/27 07:30:30;;;;;;;3.08;2.58;;;;;;;-141.50;100.00;63355.56;5053207;28;20532;-83
2022/06/27 07:32:57;;;;;;;7.00;2.60;;;;;;;-141.50;100.00;63355.56;5070264;28;20738;-80
2022/06/27 07:35:24;;;;;;;3.72;2.60;;;;;;;-141.50;100.00;63355.56;5071576;28;20040;-80
2022/06/27 07:37:51;;;;;;;6.82;2.75;;;;;;;-141.50;100.00;63355.56;5070905;28;20076;-81
2022/06/27 07:40:20;;;;;;;4.90;2.30;;;;;;;-141.50;100.00;63355.56;5071889;28;20098;-84
2022/06/27 07:42:49;;;;;;;4.13;2.30;;;;;;;-141.50;100.00;63355.56;5074041;28;20250;-84
2022/06/27 07:45:23;;;;;;;5.25;2.50;;;;;;;-141.50;100.00;63355.56;5092512;28;20083;-83
2022/06/27 07:47:51;;;;;;;4.35;2.45;;;;;;;-141.50;100.00;63355.56;5071973;28;20056;-84
2022/06/27 07:53:14;;;;;;;;;;;;;;;-141.50;100.00;63355.56;5072930;28;20094;-82
2022/06/27 07:55:53;;;;;;;4.57;2.30;;;;;;;-141.50;100.00;63355.56;5086050;28;19952;-83
2022/06/27 07:58:26;;;;;;;2.85;2.10;;;;;;;-141.50;100.00;63355.56;5074372;28;20109;-83
2022/06/27 08:00:54;;;;;;;3.95;2.38;;;;;;;-141.50;100.00;63355.56;5071855;28;20056;-83
2022/06/27 08:03:36;;;;;;;3.05;2.22;;;;;;;-141.50;100.00;63355.56;5072511;28;20052;-83
2022/06/27 08:06:10;;;;;;;4.32;2.33;;;;;;;-141.50;100.00;63355.56;5075927;28;20643;-84
2022/06/27 08:08:39;;;;;;;5.07;2.17;;;;;;;-141.50;100.00;63355.56;5092003;28;20562;-84
2022/06/27 08:11:08;;;;;;;5.32;2.38;;;;;;;-141.50;100.00;63355.56;5074766;28;20059;-85
2022/06/27 08:13:35;;;;;;;5.88;2.20;;;;;;;-141.50;100.00;63355.56;5092459;28;20072;-84
2022/06/27 08:16:05;;;;;;;6.18;2.03;;;;;;;-141.50;100.00;63355.56;5092170;28;20044;-84
2022/06/27 08:18:33;;;;;;;4.13;2.30;;;;;;;-141.50;100.00;63355.56;5070242;28;20079;-85
2022/06/27 08:21:00;;;;;;;3.58;2.42;;;;;;;-141.50;100.00;63355.56;5062308;28;20087;-85
2022/06/27 08:23:28;;;;;;;6.18;2.38;;;;;;;-141.50;100.00;63355.56;5073738;28;20091;-83
2022/06/27 08:25:55;;;;;;;4.28;1.90;;;;;;;-141.50;100.00;63355.56;5073121;28;20099;-85
2022/06/27 08:28:23;;;;;;;4.75;2.17;;;;;;;-141.50;100.00;63355.56;5072789;28;20056;-84
2022/06/27 08:30:50;;;;;;;3.38;2.00;;;;;;;-141.50;100.00;63355.56;5078194;28;20091;-82
2022/06/27 08:33:18;;;;;;;2.60;2.00;;;;;;;-141.50;100.00;63355.56;5078560;28;20461;-84
2022/06/27 08:35:47;;;;;;;2.40;1.67;;;;;;;-141.50;100.00;63355.56;5073463;28;20553;-86
2022/06/27 08:38:16;;;;;;;3.88;1.75;;;;;;;-141.50;100.00;63355.56;5075335;28;20058;-82
2022/06/27 08:40:44;;;;;;;3.65;1.80;;;;;;;-141.50;100.00;63355.56;5093676;28;20048;-85
2022/06/27 08:43:11;;;;;;;3.83;1.90;;;;;;;-141.50;100.00;63355.56;5076227;28;20075;-85
2022/06/27 08:45:45;;;;;;;5.07;1.88;;;;;;;-141.50;100.00;63355.56;5095423;28;20044;-80
2022/06/27 08:48:13;;;;;;;3.00;1.67;;;;;;;-141.50;100.00;63355.56;5075370;28;20089;-83
2022/06/27 08:50:40;;;;;;;4.07;1.77;;;;;;;-141.50;100.00;63355.56;5094034;28;20075;-82
2022/06/27 08:53:07;;;;;;;4.57;1.75;;;;;;;-141.50;100.00;63355.56;5097410;28;20073;-84
2022/06/27 08:55:35;;;;;;;2.97;1.80;;;;;;;-141.50;100.00;63355.56;5109520;28;20044;-82
2022/06/27 08:58:06;;;;;;;2.38;1.70;;;;;;;-141.50;100.00;63355.56;5074501;28;20062;-82
2022/06/27 09:00:37;;;;;;;4.68;1.75;;;;;;;-141.50;100.00;63355.56;5073571;28;20071;-83
2022/06/27 09:03:06;;;;;;;1.90;1.70;;;;;;;-141.50;100.00;63355.56;5091147;28;20055;-84
2022/06/27 09:05:37;;;;;;;2.08;1.60;;;;;;;-141.50;100.00;63355.56;5086772;28;20098;-83
2022/06/27 09:08:06;;;;;;;2.42;1.70;;;;;;;-141.50;100.00;63355.56;5093273;28;20071;-85
2022/06/27 09:10:36;;;;;;;3.47;1.73;;;;;;;-141.50;100.00;63355.56;5096675;28;20055;-83
2022/06/27 09:13:06;;;;;;;6.13;1.60;;;;;;;-141.50;100.00;63355.56;5083888;28;20052;-84
2022/06/27 09:15:38;;;;;;;5.13;1.70;;;;;;;-141.50;100.00;63355.56;5103116;28;20508;-85
2022/06/27 09:18:08;;;;;;;2.53;1.55;;;;;;;-141.50;100.00;63355.56;5097081;28;20052;-84
2022/06/27 09:21:01;;;;;;;4.63;1.85;;;;;;;-141.50;100.00;63355.56;5082587;28;20354;-82
2022/06/27 09:23:39;;;;;;;5.50;1.70;;;;;;;-141.50;100.00;63355.56;5058632;28;20067;-84
2022/06/27 09:26:12;;;;;;;3.13;2.00;;;;;;;-141.50;100.00;63355.56;5055838;28;20041;-84
2022/06/27 09:28:44;;;;;;;2.65;1.80;;;;;;;-141.50;100.00;63355.56;5073358;28;20052;-82
2022/06/27 09:31:32;;;;;;;4.03;2.20;;;;;;;-141.50;100.00;63355.56;5073562;28;20485;-85
2022/06/27 09:34:24;;;;;;;2.67;1.85;;;;;;;-141.50;100.00;63355.56;5073102;28;20117;-86
2022/06/27 09:36:57;;;;;;;7.18;2.10;;;;;;;-141.50;100.00;63355.56;5083629;28;20048;-85
2022/06/27 09:39:30;;;;;;;2.95;1.92;;;;;;;-141.50;100.00;63355.56;5097001;28;20229;-84
2022/06/27 09:42:02;;;;;;;5.93;1.98;;;;;;;-141.50;100.00;63355.56;5101523;28;20076;-86
2022/06/27 09:44:32;;;;;;;4.03;1.83;;;;;;;-141.50;100.00;63355.56;5074232;28;20059;-85
2022/06/27 09:47:03;;;;;;;5.45;1.90;;;;;;;-141.50;100.00;63355.56;5093344;28;20066;-85
2022/06/27 09:49:33;;;;;;;3.28;1.60;;;;;;;-141.50;100.00;63355.56;5091576;28;20500;-86
2022/06/27 09:52:04;;;;;;;3.15;1.58;;;;;;;-141.50;100.00;63355.56;5092091;28;20080;-85
2022/06/27 09:54:33;;;;;;;4.45;1.77;;;;;;;-141.50;100.00;63355.56;5075151;28;20063;-84
2022/06/27 09:57:02;;;;;;;2.50;1.70;;;;;;;-141.50;100.00;63355.56;5073928;28;20127;-86
2022/06/27 09:59:30;;;;;;;2.80;1.63;;;;;;;-141.50;100.00;63355.56;5074071;28;20056;-84
2022/06/27 10:01:58;;;;;;;4.90;1.80;;;;;;;-141.50;100.00;63355.56;5092222;28;20484;-87
2022/06/27 10:04:29;;;;;;;4.93;1.95;;;;;;;-141.50;100.00;63355.56;5064567;28;20105;-82
2022/06/27 10:07:00;;;;;;;8.30;1.90;;;;;;;-141.50;100.00;63355.56;5056905;28;20154;-85
2022/06/27 10:09:29;;;;;;;3.90;1.77;;;;;;;-141.50;100.00;63355.56;5055302;28;20194;-85
2022/06/27 10:12:24;;;;;;;3.78;1.50;;;;;;;-141.50;100.00;63355.56;5072924;28;20052;-84
2022/06/27 10:15:09;;;;;;;4.43;1.80;;;;;;;-141.50;100.00;63355.56;5073463;28;20079;-86
2022/06/27 10:17:36;;;;;;;;;;;;;;;-141.50;100.00;63355.56;5077519;28;20055;-83
2022/06/27 10:20:06;;;;;;;5.50;1.80;;;;;;;-141.50;100.00;63355.56;5075517;28;20040;-85
2022/06/27 10:22:33;;;;;;;5.20;1.90;;;;;;;-141.50;100.00;63355.56;5053948;28;20053;-86
2022/06/27 10:25:25;;;;;;;7.22;1.80;;;;;;;-141.50;100.00;63355.56;5052962;28;20105;-87
2022/06/27 10:28:07;;;;;;;3.65;1.80;;;;;;;-141.50;100.00;63355.56;5051654;28;20079;-83
2022/06/27 10:30:43;;;;;;;2.22;1.80;;;;;;;-141.50;100.00;63355.56;5052034;28;20132;-86
2022/06/27 10:33:22;;;;;;;5.05;2.05;;;;;;;-141.50;100.00;63355.56;5040640;28;20087;-86
2022/06/27 10:38:39;;;;;;;3.85;2.25;;;;;;;-141.50;100.00;63355.56;5069214;28;20084;-83
2022/06/27 10:41:08;;;;;;;3.72;1.98;;;;;;;-141.50;100.00;63355.56;5072528;28;20064;-84
2022/06/27 10:43:50;;;;;;;2.95;2.00;;;;;;;-141.50;100.00;63355.56;5069422;28;20051;-84
2022/06/27 10:46:17;;;;;;;2.45;2.13;;;;;;;-141.50;100.00;63355.56;5051648;28;20080;-84
2022/06/27 10:48:50;;;;;;;3.38;2.10;;;;;;;-141.50;100.00;63355.56;5070413;28;20107;-85
2022/06/27 10:51:26;;;;;;;5.75;2.10;;;;;;;-141.50;100.00;63355.56;5053610;28;20053;-83
2022/06/27 10:53:59;;;;;;;3.45;1.90;;;;;;;-141.50;100.00;63355.56;5054238;28;20052;-85
2022/06/27 10:56:29;;;;;;;4.30;2.00;;;;;;;-141.50;100.00;63355.56;5071885;28;20055;-82
2022/06/27 10:58:57;;;;;;;3.75;2.40;;;;;;;-141.50;100.00;63355.56;5053110;28;20102;-84
2022/06/27 11:01:24;;;;;;;2.40;2.00;;;;;;;-141.50;100.00;63355.56;5058503;28;20080;-83
2022/06/27 11:03:52;;;;;;;4.43;1.85;;;;;;;-141.50;100.00;63355.56;5076377;28;20135;-84
2022/06/27 11:06:19;;;;;;;2.83;1.88;;;;;;;-141.50;100.00;63355.56;5072302;28;20044;-83
2022/06/27 11:08:48;;;;;;;2.92;1.85;;;;;;;-141.50;100.00;63355.56;5074249;28;20132;-85
2022/06/27 11:11:25;;;;;;;2.00;1.77;;;;;;;-141.50;100.00;63355.56;5095812;28;20253;-84
2022/06/27 11:13:56;;;;;;;4.25;2.10;;;;;;;-141.50;100.00;63355.56;5073479;28;20423;-81
2022/06/27 11:16:32;;;;;;;4.05;1.90;;;;;;;-141.50;100.00;63355.56;5108305;28;20047;-81
2022/06/27 11:18:59;;;;;;;2.20;1.98;;;;;;;-141.50;100.00;63355.56;5064331;28;20052;-81
2022/06/27 11:21:27;;;;;;;4.57;2.10;;;;;;;-141.50;100.00;63355.56;5054806;28;20049;-82
2022/06/27 11:23:58;;;;;;;3.85;2.20;;;;;;;-141.50;100.00;63355.56;5073758;28;20075;-82